sensor_id;sensor_type;location;lat;lon;timestamp;pressure;altitude;pressure_sealevel;temperature;humidity
21520;BME280;10921;53.614;9.882;2022-10-24T00:01:16;100461.84;;;16.43;97.14
21520;BME280;10921;53.614;9.882;2022-10-24T00:03:44;100473.72;;;16.49;96.59
21520;BME280;10921;53.614;9.882;2022-10-24T00:06:11;100468.97;;;16.51;96.42
21520;BME280;10921;53.614;9.882;2022-10-24T00:08:40;100469.44;;;16.54;97.02
21520;BME280;10921;53.614;9.882;2022-10-24T00:11:12;100465.34;;;16.59;96.82
21520;BME280;10921;53.614;9.882;2022-10-24T00:13:39;100463.47;;;16.59;96.27
21520;BME280;10921;53.614;9.882;2022-10-24T00:16:06;100456.22;;;16.60;96.36
21520;BME280;10921;53.614;9.882;2022-10-24T00:18:33;100452.88;;;16.58;96.08
21520;BME280;10921;53.614;9.882;2022-10-24T00:21:00;100444.16;;;16.56;96.13
21520;BME280;10921;53.614;9.882;2022-10-24T00:23:26;100450.00;;;16.59;96.06
21520;BME280;10921;53.614;9.882;2022-10-24T00:25:53;100442.88;;;16.51;95.33
21520;BME280;10921;53.614;9.882;2022-10-24T00:28:19;100459.94;;;16.59;95.18
21520;BME280;10921;53.614;9.882;2022-10-24T00:30:50;100456.22;;;16.60;95.41
21520;BME280;10921;53.614;9.882;2022-10-24T00:33:17;100465.72;;;16.56;94.96
21520;BME280;10921;53.614;9.882;2022-10-24T00:35:43;100468.69;;;16.61;95.04
21520;BME280;10921;53.614;9.882;2022-10-24T00:38:10;100454.88;;;16.49;95.35
21520;BME280;10921;53.614;9.882;2022-10-24T00:40:36;100455.13;;;16.54;95.25
21520;BME280;10921;53.614;9.882;2022-10-24T00:43:03;100459.13;;;16.58;95.36
21520;BME280;10921;53.614;9.882;2022-10-24T00:48:32;100439.75;;;16.48;95.82
21520;BME280;10921;53.614;9.882;2022-10-24T00:50:58;100442.63;;;16.46;95.07
21520;BME280;10921;53.614;9.882;2022-10-24T00:53:27;100449.50;;;16.49;94.80
21520;BME280;10921;53.614;9.882;2022-10-24T00:55:57;100445.75;;;16.50;94.83
21520;BME280;10921;53.614;9.882;2022-10-24T00:58:26;100445.75;;;16.50;94.66
21520;BME280;10921;53.614;9.882;2022-10-24T01:00:55;100438.06;;;16.47;94.47
21520;BME280;10921;53.614;9.882;2022-10-24T01:03:21;100429.06;;;16.40;94.68
21520;BME280;10921;53.614;9.882;2022-10-24T01:11:34;100434.00;;;16.36;95.29
21520;BME280;10921;53.614;9.882;2022-10-24T01:17:06;100434.44;;;16.40;93.91
21520;BME280;10921;53.614;9.882;2022-10-24T01:22:53;100433.94;;;16.15;93.07
21520;BME280;10921;53.614;9.882;2022-10-24T01:25:13;100438.41;;;16.08;93.76
21520;BME280;10921;53.614;9.882;2022-10-24T01:27:57;100440.00;;;16.02;94.66
21520;BME280;10921;53.614;9.882;2022-10-24T01:30:28;100429.03;;;15.89;93.52
21520;BME280;10921;53.614;9.882;2022-10-24T01:33:17;100430.50;;;15.92;94.79
21520;BME280;10921;53.614;9.882;2022-10-24T01:38:30;100417.25;;;15.75;95.34
21520;BME280;10921;53.614;9.882;2022-10-24T01:41:17;100426.34;;;15.74;95.73
21520;BME280;10921;53.614;9.882;2022-10-24T01:43:55;100429.41;;;15.71;95.93
21520;BME280;10921;53.614;9.882;2022-10-24T01:46:31;100421.59;;;15.62;95.57
21520;BME280;10921;53.614;9.882;2022-10-24T01:49:13;100429.31;;;15.65;96.66
21520;BME280;10921;53.614;9.882;2022-10-24T01:51:43;100425.31;;;15.61;96.14
21520;BME280;10921;53.614;9.882;2022-10-24T01:54:11;100416.47;;;15.52;96.60
21520;BME280;10921;53.614;9.882;2022-10-24T01:56:38;100414.28;;;15.56;97.15
21520;BME280;10921;53.614;9.882;2022-10-24T02:02:07;100390.13;;;15.47;98.61
21520;BME280;10921;53.614;9.882;2022-10-24T02:04:40;100402.69;;;15.55;98.48
21520;BME280;10921;53.614;9.882;2022-10-24T02:07:10;100406.03;;;15.57;98.62
21520;BME280;10921;53.614;9.882;2022-10-24T02:09:40;100409.34;;;15.59;98.74
21520;BME280;10921;53.614;9.882;2022-10-24T02:12:11;100401.50;;;15.58;98.93
21520;BME280;10921;53.614;9.882;2022-10-24T02:14:48;100403.44;;;15.64;99.48
21520;BME280;10921;53.614;9.882;2022-10-24T02:17:16;100407.63;;;15.66;98.94
21520;BME280;10921;53.614;9.882;2022-10-24T02:19:43;100408.81;;;15.64;98.35
21520;BME280;10921;53.614;9.882;2022-10-24T02:22:16;100395.84;;;15.67;98.24
21520;BME280;10921;53.614;9.882;2022-10-24T02:24:49;100394.81;;;15.68;98.07
21520;BME280;10921;53.614;9.882;2022-10-24T02:27:23;100395.00;;;15.67;97.75
21520;BME280;10921;53.614;9.882;2022-10-24T02:29:59;100365.06;;;15.55;97.77
21520;BME280;10921;53.614;9.882;2022-10-24T02:32:37;100371.34;;;15.62;98.05
21520;BME280;10921;53.614;9.882;2022-10-24T02:35:06;100367.63;;;15.63;97.65
21520;BME280;10921;53.614;9.882;2022-10-24T02:37:36;100372.19;;;15.63;97.71
21520;BME280;10921;53.614;9.882;2022-10-24T02:40:06;100363.63;;;15.59;97.73
21520;BME280;10921;53.614;9.882;2022-10-24T02:42:34;100355.13;;;15.56;97.44
21520;BME280;10921;53.614;9.882;2022-10-24T02:45:02;100352.78;;;15.53;97.29
21520;BME280;10921;53.614;9.882;2022-10-24T02:47:30;100342.84;;;15.53;97.30
21520;BME280;10921;53.614;9.882;2022-10-24T02:49:57;100340.25;;;15.45;96.66
21520;BME280;10921;53.614;9.882;2022-10-24T02:52:24;100353.97;;;15.50;96.36
21520;BME280;10921;53.614;9.882;2022-10-24T02:54:50;100328.41;;;15.39;96.19
21520;BME280;10921;53.614;9.882;2022-10-24T02:57:17;100349.13;;;15.45;96.94
21520;BME280;10921;53.614;9.882;2022-10-24T02:59:44;100347.47;;;15.44;96.67
21520;BME280;10921;53.614;9.882;2022-10-24T03:02:10;100352.00;;;15.44;97.11
21520;BME280;10921;53.614;9.882;2022-10-24T03:04:36;100335.16;;;15.35;96.83
21520;BME280;10921;53.614;9.882;2022-10-24T03:07:03;100334.97;;;15.37;97.00
21520;BME280;10921;53.614;9.882;2022-10-24T03:09:29;100344.97;;;15.43;97.22
21520;BME280;10921;53.614;9.882;2022-10-24T03:11:56;100342.00;;;15.38;97.76
21520;BME280;10921;53.614;9.882;2022-10-24T03:14:25;100334.31;;;15.35;98.03
21520;BME280;10921;53.614;9.882;2022-10-24T03:16:51;100332.75;;;15.40;97.74
21520;BME280;10921;53.614;9.882;2022-10-24T03:19:17;100326.53;;;15.40;97.94
21520;BME280;10921;53.614;9.882;2022-10-24T03:21:44;100323.84;;;15.40;98.19
21520;BME280;10921;53.614;9.882;2022-10-24T03:24:10;100317.47;;;15.41;98.93
21520;BME280;10921;53.614;9.882;2022-10-24T03:26:37;100321.88;;;15.48;99.05
21520;BME280;10921;53.614;9.882;2022-10-24T03:29:04;100320.69;;;15.51;99.66
21520;BME280;10921;53.614;9.882;2022-10-24T03:31:31;100318.56;;;15.46;99.42
21520;BME280;10921;53.614;9.882;2022-10-24T03:33:57;100324.53;;;15.57;99.32
21520;BME280;10921;53.614;9.882;2022-10-24T03:36:24;100323.50;;;15.58;98.68
21520;BME280;10921;53.614;9.882;2022-10-24T03:38:51;100309.28;;;15.49;98.49
21520;BME280;10921;53.614;9.882;2022-10-24T03:41:17;100321.84;;;15.57;98.03
21520;BME280;10921;53.614;9.882;2022-10-24T03:43:44;100324.34;;;15.58;97.82
21520;BME280;10921;53.614;9.882;2022-10-24T03:46:10;100326.63;;;15.61;97.31
21520;BME280;10921;53.614;9.882;2022-10-24T03:48:36;100305.38;;;15.52;97.63
21520;BME280;10921;53.614;9.882;2022-10-24T03:51:03;100335.38;;;15.63;97.82
21520;BME280;10921;53.614;9.882;2022-10-24T03:53:29;100320.00;;;15.57;97.91
21520;BME280;10921;53.614;9.882;2022-10-24T03:55:56;100329.97;;;15.63;97.62
21520;BME280;10921;53.614;9.882;2022-10-24T03:58:23;100318.75;;;15.60;97.58
21520;BME280;10921;53.614;9.882;2022-10-24T04:00:49;100315.69;;;15.63;97.40
21520;BME280;10921;53.614;9.882;2022-10-24T04:03:16;100321.25;;;15.61;97.03
21520;BME280;10921;53.614;9.882;2022-10-24T04:05:42;100325.25;;;15.65;97.16
21520;BME280;10921;53.614;9.882;2022-10-24T04:08:09;100304.88;;;15.56;96.85
21520;BME280;10921;53.614;9.882;2022-10-24T04:10:35;100308.28;;;15.65;96.80
21520;BME280;10921;53.614;9.882;2022-10-24T04:13:01;100317.38;;;15.64;96.49
21520;BME280;10921;53.614;9.882;2022-10-24T04:15:28;100312.19;;;15.62;95.91
21520;BME280;10921;53.614;9.882;2022-10-24T04:17:54;100286.06;;;15.56;95.68
21520;BME280;10921;53.614;9.882;2022-10-24T04:20:21;100307.25;;;15.66;95.32
21520;BME280;10921;53.614;9.882;2022-10-24T04:22:48;100290.66;;;15.62;95.36
21520;BME280;10921;53.614;9.882;2022-10-24T04:25:15;100284.38;;;15.55;95.67
21520;BME280;10921;53.614;9.882;2022-10-24T04:27:42;100284.81;;;15.59;96.13
21520;BME280;10921;53.614;9.882;2022-10-24T04:30:11;100302.44;;;15.61;96.47
21520;BME280;10921;53.614;9.882;2022-10-24T04:32:44;100303.47;;;15.60;96.56
21520;BME280;10921;53.614;9.882;2022-10-24T04:35:11;100310.06;;;15.58;96.11
21520;BME280;10921;53.614;9.882;2022-10-24T04:37:39;100307.56;;;15.56;96.48
21520;BME280;10921;53.614;9.882;2022-10-24T04:40:05;100321.06;;;15.63;96.21
21520;BME280;10921;53.614;9.882;2022-10-24T04:42:32;100306.34;;;15.59;96.01
21520;BME280;10921;53.614;9.882;2022-10-24T04:44:58;100300.34;;;15.57;95.69
21520;BME280;10921;53.614;9.882;2022-10-24T04:47:25;100308.84;;;15.60;95.31
21520;BME280;10921;53.614;9.882;2022-10-24T04:49:51;100309.22;;;15.57;94.49
21520;BME280;10921;53.614;9.882;2022-10-24T04:52:18;100314.63;;;15.57;95.05
21520;BME280;10921;53.614;9.882;2022-10-24T04:54:44;100302.34;;;15.55;95.35
21520;BME280;10921;53.614;9.882;2022-10-24T04:57:11;100319.16;;;15.57;95.63
21520;BME280;10921;53.614;9.882;2022-10-24T04:59:37;100304.03;;;15.56;95.06
21520;BME280;10921;53.614;9.882;2022-10-24T05:02:04;100304.19;;;15.54;95.37
21520;BME280;10921;53.614;9.882;2022-10-24T05:04:30;100310.06;;;15.58;95.50
21520;BME280;10921;53.614;9.882;2022-10-24T05:06:57;100293.44;;;15.54;95.31
21520;BME280;10921;53.614;9.882;2022-10-24T05:09:23;100305.72;;;15.57;94.81
21520;BME280;10921;53.614;9.882;2022-10-24T05:11:50;100300.16;;;15.58;94.58
21520;BME280;10921;53.614;9.882;2022-10-24T05:14:18;100297.72;;;15.63;94.36
21520;BME280;10921;53.614;9.882;2022-10-24T05:16:45;100306.44;;;15.65;93.60
21520;BME280;10921;53.614;9.882;2022-10-24T05:19:14;100305.59;;;15.65;93.28
21520;BME280;10921;53.614;9.882;2022-10-24T05:21:42;100303.94;;;15.64;92.91
21520;BME280;10921;53.614;9.882;2022-10-24T05:24:08;100305.03;;;15.69;92.75
21520;BME280;10921;53.614;9.882;2022-10-24T05:26:35;100303.56;;;15.67;92.46
21520;BME280;10921;53.614;9.882;2022-10-24T05:29:01;100290.66;;;15.62;92.18
21520;BME280;10921;53.614;9.882;2022-10-24T05:31:28;100293.69;;;15.74;91.90
21520;BME280;10921;53.614;9.882;2022-10-24T05:33:54;100287.69;;;15.72;91.68
21520;BME280;10921;53.614;9.882;2022-10-24T05:36:21;100311.13;;;15.78;91.33
21520;BME280;10921;53.614;9.882;2022-10-24T05:38:47;100299.53;;;15.77;90.90
21520;BME280;10921;53.614;9.882;2022-10-24T05:41:13;100310.31;;;15.77;90.74
21520;BME280;10921;53.614;9.882;2022-10-24T05:43:40;100296.19;;;15.75;90.23
21520;BME280;10921;53.614;9.882;2022-10-24T05:46:06;100301.03;;;15.80;89.84
21520;BME280;10921;53.614;9.882;2022-10-24T05:48:33;100304.00;;;15.85;89.50
21520;BME280;10921;53.614;9.882;2022-10-24T05:50:59;100313.16;;;15.91;89.19
21520;BME280;10921;53.614;9.882;2022-10-24T05:53:26;100308.88;;;15.96;88.45
21520;BME280;10921;53.614;9.882;2022-10-24T05:55:53;100316.41;;;16.01;87.74
21520;BME280;10921;53.614;9.882;2022-10-24T05:58:19;100301.50;;;16.05;86.90
21520;BME280;10921;53.614;9.882;2022-10-24T06:00:48;100311.34;;;16.12;86.59
21520;BME280;10921;53.614;9.882;2022-10-24T06:03:19;100298.44;;;16.08;85.88
21520;BME280;10921;53.614;9.882;2022-10-24T06:05:45;100315.75;;;16.20;85.49
21520;BME280;10921;53.614;9.882;2022-10-24T06:08:12;100304.44;;;16.25;84.87
21520;BME280;10921;53.614;9.882;2022-10-24T06:10:38;100287.19;;;16.19;84.56
21520;BME280;10921;53.614;9.882;2022-10-24T06:13:05;100314.25;;;16.32;84.39
21520;BME280;10921;53.614;9.882;2022-10-24T06:15:31;100314.69;;;16.36;84.14
21520;BME280;10921;53.614;9.882;2022-10-24T06:17:58;100291.16;;;16.23;83.89
21520;BME280;10921;53.614;9.882;2022-10-24T06:20:25;100307.44;;;16.36;84.04
21520;BME280;10921;53.614;9.882;2022-10-24T06:22:51;100308.69;;;16.34;83.65
21520;BME280;10921;53.614;9.882;2022-10-24T06:25:18;100288.91;;;16.27;84.22
21520;BME280;10921;53.614;9.882;2022-10-24T06:27:44;100286.03;;;16.28;84.33
21520;BME280;10921;53.614;9.882;2022-10-24T06:30:11;100285.59;;;16.25;84.47
21520;BME280;10921;53.614;9.882;2022-10-24T06:32:38;100299.13;;;16.31;84.42
21520;BME280;10921;53.614;9.882;2022-10-24T06:35:09;100299.31;;;16.30;84.60
21520;BME280;10921;53.614;9.882;2022-10-24T06:37:39;100298.66;;;16.28;84.51
21520;BME280;10921;53.614;9.882;2022-10-24T06:40:10;100281.81;;;16.19;84.72
21520;BME280;10921;53.614;9.882;2022-10-24T06:42:36;100301.81;;;16.31;84.92
21520;BME280;10921;53.614;9.882;2022-10-24T06:45:03;100300.34;;;16.29;85.03
21520;BME280;10921;53.614;9.882;2022-10-24T06:47:30;100295.50;;;16.24;84.98
21520;BME280;10921;53.614;9.882;2022-10-24T06:49:57;100302.56;;;16.25;85.00
21520;BME280;10921;53.614;9.882;2022-10-24T06:52:23;100300.72;;;16.26;85.13
21520;BME280;10921;53.614;9.882;2022-10-24T06:54:50;100302.56;;;16.25;85.29
21520;BME280;10921;53.614;9.882;2022-10-24T06:57:16;100304.63;;;16.23;85.35
21520;BME280;10921;53.614;9.882;2022-10-24T06:59:44;100322.44;;;16.24;85.39
21520;BME280;10921;53.614;9.882;2022-10-24T07:02:14;100320.41;;;16.26;85.99
21520;BME280;10921;53.614;9.882;2022-10-24T07:04:41;100314.53;;;16.23;85.78
21520;BME280;10921;53.614;9.882;2022-10-24T07:07:17;100318.72;;;16.25;85.97
21520;BME280;10921;53.614;9.882;2022-10-24T07:09:44;100323.72;;;16.28;85.45
21520;BME280;10921;53.614;9.882;2022-10-24T07:12:10;100318.53;;;16.27;85.25
21520;BME280;10921;53.614;9.882;2022-10-24T07:14:37;100338.91;;;16.36;85.28
21520;BME280;10921;53.614;9.882;2022-10-24T07:17:05;100341.22;;;16.39;85.10
21520;BME280;10921;53.614;9.882;2022-10-24T07:19:31;100340.03;;;16.41;84.72
21520;BME280;10921;53.614;9.882;2022-10-24T07:22:02;100345.03;;;16.44;84.25
21520;BME280;10921;53.614;9.882;2022-10-24T07:24:28;100323.88;;;16.41;84.14
21520;BME280;10921;53.614;9.882;2022-10-24T07:26:55;100344.88;;;16.52;83.82
21520;BME280;10921;53.614;9.882;2022-10-24T07:29:21;100349.06;;;16.55;83.70
21520;BME280;10921;53.614;9.882;2022-10-24T07:31:48;100344.22;;;16.65;83.21
21520;BME280;10921;53.614;9.882;2022-10-24T07:34:15;100343.00;;;16.68;82.93
21520;BME280;10921;53.614;9.882;2022-10-24T07:36:41;100333.06;;;16.68;82.70
21520;BME280;10921;53.614;9.882;2022-10-24T07:39:10;100353.47;;;16.77;82.57
21520;BME280;10921;53.614;9.882;2022-10-24T07:41:38;100348.06;;;16.77;82.39
21520;BME280;10921;53.614;9.882;2022-10-24T07:44:07;100361.59;;;16.84;82.14
21520;BME280;10921;53.614;9.882;2022-10-24T07:46:34;100373.66;;;16.88;82.42
21520;BME280;10921;53.614;9.882;2022-10-24T07:49:00;100358.91;;;16.84;81.85
21520;BME280;10921;53.614;9.882;2022-10-24T07:51:30;100361.41;;;16.85;81.83
21520;BME280;10921;53.614;9.882;2022-10-24T07:53:57;100353.75;;;16.89;81.42
21520;BME280;10921;53.614;9.882;2022-10-24T07:56:24;100347.53;;;16.88;81.44
21520;BME280;10921;53.614;9.882;2022-10-24T07:58:50;100358.03;;;17.05;81.12
21520;BME280;10921;53.614;9.882;2022-10-24T08:01:19;100363.91;;;17.15;80.59
21520;BME280;10921;53.614;9.882;2022-10-24T08:03:47;100357.13;;;17.19;80.23
21520;BME280;10921;53.614;9.882;2022-10-24T08:06:17;100359.06;;;17.32;80.02
21520;BME280;10921;53.614;9.882;2022-10-24T08:08:44;100372.81;;;17.43;78.97
21520;BME280;10921;53.614;9.882;2022-10-24T08:11:14;100357.78;;;17.55;77.83
21520;BME280;10921;53.614;9.882;2022-10-24T08:13:41;100359.75;;;17.68;78.03
21520;BME280;10921;53.614;9.882;2022-10-24T08:16:10;100356.91;;;17.83;76.97
21520;BME280;10921;53.614;9.882;2022-10-24T08:18:38;100359.44;;;17.91;76.20
21520;BME280;10921;53.614;9.882;2022-10-24T08:21:09;100351.19;;;17.99;75.24
21520;BME280;10921;53.614;9.882;2022-10-24T08:23:37;100365.81;;;18.24;75.40
21520;BME280;10921;53.614;9.882;2022-10-24T08:26:08;100342.28;;;18.18;74.83
21520;BME280;10921;53.614;9.882;2022-10-24T08:28:34;100343.78;;;18.34;74.86
21520;BME280;10921;53.614;9.882;2022-10-24T08:31:06;100359.44;;;18.45;74.13
21520;BME280;10921;53.614;9.882;2022-10-24T08:33:34;100357.34;;;18.54;73.57
21520;BME280;10921;53.614;9.882;2022-10-24T08:36:04;100354.91;;;18.66;73.68
21520;BME280;10921;53.614;9.882;2022-10-24T08:38:31;100354.53;;;18.75;73.44
21520;BME280;10921;53.614;9.882;2022-10-24T08:40:58;100360.34;;;18.85;72.61
21520;BME280;10921;53.614;9.882;2022-10-24T08:43:25;100354.31;;;18.90;71.24
21520;BME280;10921;53.614;9.882;2022-10-24T08:46:26;100341.63;;;19.04;71.06
21520;BME280;10921;53.614;9.882;2022-10-24T08:49:06;100335.16;;;19.11;70.86
21520;BME280;10921;53.614;9.882;2022-10-24T08:51:45;100338.50;;;19.13;70.74
21520;BME280;10921;53.614;9.882;2022-10-24T08:54:16;100338.06;;;19.10;69.69
21520;BME280;10921;53.614;9.882;2022-10-24T08:56:45;100352.84;;;19.20;69.13
21520;BME280;10921;53.614;9.882;2022-10-24T08:59:12;100348.47;;;19.26;69.63
21520;BME280;10921;53.614;9.882;2022-10-24T09:01:44;100343.06;;;19.26;68.20
21520;BME280;10921;53.614;9.882;2022-10-24T09:04:17;100346.38;;;19.28;68.32
21520;BME280;10921;53.614;9.882;2022-10-24T09:06:46;100326.44;;;19.22;67.71
21520;BME280;10921;53.614;9.882;2022-10-24T09:09:32;100346.56;;;19.46;67.68
21520;BME280;10921;53.614;9.882;2022-10-24T09:12:07;100348.69;;;19.51;67.39
21520;BME280;10921;53.614;9.882;2022-10-24T09:14:36;100342.41;;;19.57;66.61
21520;BME280;10921;53.614;9.882;2022-10-24T09:17:30;100329.53;;;19.52;67.04
21520;BME280;10921;53.614;9.882;2022-10-24T09:20:24;100349.22;;;19.73;66.72
21520;BME280;10921;53.614;9.882;2022-10-24T09:22:53;100339.84;;;19.75;66.31
21520;BME280;10921;53.614;9.882;2022-10-24T09:25:23;100343.78;;;19.86;65.41
21520;BME280;10921;53.614;9.882;2022-10-24T09:27:50;100339.19;;;19.86;65.68
21520;BME280;10921;53.614;9.882;2022-10-24T09:30:23;100349.78;;;20.01;65.72
21520;BME280;10921;53.614;9.882;2022-10-24T09:33:06;100353.25;;;20.08;64.43
21520;BME280;10921;53.614;9.882;2022-10-24T09:35:38;100351.53;;;20.20;65.33
21520;BME280;10921;53.614;9.882;2022-10-24T09:38:38;100346.66;;;20.35;63.29
21520;BME280;10921;53.614;9.882;2022-10-24T09:41:28;100346.19;;;20.52;62.28
21520;BME280;10921;53.614;9.882;2022-10-24T09:43:57;100340.66;;;20.65;62.30
21520;BME280;10921;53.614;9.882;2022-10-24T09:46:27;100343.28;;;20.78;61.64
21520;BME280;10921;53.614;9.882;2022-10-24T09:48:57;100347.94;;;20.96;61.39
21520;BME280;10921;53.614;9.882;2022-10-24T09:54:08;100339.75;;;21.27;59.89
21520;BME280;10921;53.614;9.882;2022-10-24T09:57:01;100342.28;;;21.47;59.57
21520;BME280;10921;53.614;9.882;2022-10-24T09:59:40;100348.41;;;21.61;59.43
21520;BME280;10921;53.614;9.882;2022-10-24T10:02:26;100329.09;;;21.69;58.76
21520;BME280;10921;53.614;9.882;2022-10-24T10:07:31;100338.44;;;22.09;57.09
21520;BME280;10921;53.614;9.882;2022-10-24T10:10:03;100317.09;;;22.13;55.98
21520;BME280;10921;53.614;9.882;2022-10-24T10:14:59;100337.66;;;22.51;55.94
21520;BME280;10921;53.614;9.882;2022-10-24T10:17:28;100329.06;;;22.65;55.69
21520;BME280;10921;53.614;9.882;2022-10-24T10:19:57;100335.94;;;22.68;54.96
21520;BME280;10921;53.614;9.882;2022-10-24T10:22:30;100342.63;;;22.95;56.39
21520;BME280;10921;53.614;9.882;2022-10-24T10:24:59;100342.25;;;22.92;54.45
21520;BME280;10921;53.614;9.882;2022-10-24T10:27:38;100346.56;;;23.11;54.60
21520;BME280;10921;53.614;9.882;2022-10-24T10:36:23;100329.66;;;23.32;54.25
21520;BME280;10921;53.614;9.882;2022-10-24T10:41:11;100328.22;;;23.41;53.88
21520;BME280;10921;53.614;9.882;2022-10-24T10:46:26;100344.19;;;23.14;53.32
21520;BME280;10921;53.614;9.882;2022-10-24T10:49:27;100336.84;;;23.15;54.53
21520;BME280;10921;53.614;9.882;2022-10-24T11:00:10;100336.75;;;22.27;54.93
21520;BME280;10921;53.614;9.882;2022-10-24T11:11:15;100349.84;;;21.82;56.41
21520;BME280;10921;53.614;9.882;2022-10-24T11:13:50;100358.06;;;21.75;56.50
21520;BME280;10921;53.614;9.882;2022-10-24T11:16:24;100347.50;;;21.67;55.58
21520;BME280;10921;53.614;9.882;2022-10-24T11:18:55;100334.88;;;21.54;55.67
21520;BME280;10921;53.614;9.882;2022-10-24T11:21:26;100334.53;;;21.51;55.71
21520;BME280;10921;53.614;9.882;2022-10-24T11:24:11;100351.88;;;21.68;55.74
21520;BME280;10921;53.614;9.882;2022-10-24T11:26:42;100354.81;;;21.66;55.54
21520;BME280;10921;53.614;9.882;2022-10-24T11:31:59;100345.84;;;21.66;55.38
21520;BME280;10921;53.614;9.882;2022-10-24T11:34:34;100343.03;;;21.72;55.57
21520;BME280;10921;53.614;9.882;2022-10-24T11:37:11;100338.66;;;21.71;54.78
21520;BME280;10921;53.614;9.882;2022-10-24T11:42:20;100341.16;;;21.73;53.68
21520;BME280;10921;53.614;9.882;2022-10-24T11:48:11;100344.09;;;21.71;53.41
21520;BME280;10921;53.614;9.882;2022-10-24T11:50:50;100343.19;;;21.59;53.55
21520;BME280;10921;53.614;9.882;2022-10-24T11:56:13;100347.25;;;21.50;54.04
21520;BME280;10921;53.614;9.882;2022-10-24T11:59:10;100339.19;;;21.62;54.79
21520;BME280;10921;53.614;9.882;2022-10-24T12:08:12;100349.22;;;21.61;54.70
21520;BME280;10921;53.614;9.882;2022-10-24T12:11:04;100358.88;;;21.57;54.42
21520;BME280;10921;53.614;9.882;2022-10-24T12:13:46;100341.88;;;21.44;54.49
21520;BME280;10921;53.614;9.882;2022-10-24T12:19:00;100361.50;;;21.46;54.19
21520;BME280;10921;53.614;9.882;2022-10-24T12:21:35;100355.41;;;21.50;54.67
21520;BME280;10921;53.614;9.882;2022-10-24T12:24:03;100348.31;;;21.49;54.69
21520;BME280;10921;53.614;9.882;2022-10-24T12:26:31;100343.72;;;21.50;54.27
21520;BME280;10921;53.614;9.882;2022-10-24T12:29:04;100329.75;;;21.46;54.52
21520;BME280;10921;53.614;9.882;2022-10-24T12:31:32;100329.53;;;21.48;54.50
21520;BME280;10921;53.614;9.882;2022-10-24T12:39:42;100351.69;;;21.45;54.75
21520;BME280;10921;53.614;9.882;2022-10-24T12:47:43;100343.25;;;21.34;54.08
21520;BME280;10921;53.614;9.882;2022-10-24T12:58:24;100350.00;;;21.25;55.08
21520;BME280;10921;53.614;9.882;2022-10-24T13:00:56;100339.03;;;21.14;55.64
21520;BME280;10921;53.614;9.882;2022-10-24T13:06:25;100337.47;;;21.24;55.64
21520;BME280;10921;53.614;9.882;2022-10-24T13:09:06;100337.13;;;21.21;55.85
21520;BME280;10921;53.614;9.882;2022-10-24T13:12:01;100337.00;;;21.34;56.32
21520;BME280;10921;53.614;9.882;2022-10-24T13:20:17;100331.41;;;21.47;54.94
21520;BME280;10921;53.614;9.882;2022-10-24T13:22:45;100316.38;;;21.26;54.51
21520;BME280;10921;53.614;9.882;2022-10-24T13:27:44;100343.31;;;21.28;55.00
21520;BME280;10921;53.614;9.882;2022-10-24T13:30:23;100341.19;;;21.30;54.63
21520;BME280;10921;53.614;9.882;2022-10-24T13:32:51;100339.25;;;21.12;54.95
21520;BME280;10921;53.614;9.882;2022-10-24T13:35:37;100350.16;;;21.05;55.49
21520;BME280;10921;53.614;9.882;2022-10-24T13:38:04;100352.31;;;20.97;55.49
21520;BME280;10921;53.614;9.882;2022-10-24T13:40:34;100352.81;;;20.87;55.75
21520;BME280;10921;53.614;9.882;2022-10-24T13:43:14;100356.81;;;20.78;56.09
21520;BME280;10921;53.614;9.882;2022-10-24T13:51:00;100359.47;;;20.60;57.84
21520;BME280;10921;53.614;9.882;2022-10-24T13:53:30;100355.84;;;20.41;57.46
21520;BME280;10921;53.614;9.882;2022-10-24T13:56:09;100368.97;;;20.44;58.28
21520;BME280;10921;53.614;9.882;2022-10-24T13:58:42;100370.44;;;20.40;58.34
21520;BME280;10921;53.614;9.882;2022-10-24T14:03:42;100366.03;;;20.46;57.18
21520;BME280;10921;53.614;9.882;2022-10-24T14:06:10;100370.00;;;20.43;57.15
21520;BME280;10921;53.614;9.882;2022-10-24T14:08:47;100385.13;;;20.57;57.24
21520;BME280;10921;53.614;9.882;2022-10-24T14:11:30;100387.00;;;20.57;56.45
21520;BME280;10921;53.614;9.882;2022-10-24T14:13:58;100385.13;;;20.57;56.62
21520;BME280;10921;53.614;9.882;2022-10-24T14:16:33;100380.16;;;20.48;56.87
21520;BME280;10921;53.614;9.882;2022-10-24T14:19:21;100392.22;;;20.58;56.93
21520;BME280;10921;53.614;9.882;2022-10-24T14:21:55;100389.75;;;20.50;56.91
21520;BME280;10921;53.614;9.882;2022-10-24T14:24:21;100395.59;;;20.47;56.71
21520;BME280;10921;53.614;9.882;2022-10-24T14:26:49;100374.78;;;20.34;56.08
21520;BME280;10921;53.614;9.882;2022-10-24T14:29:22;100394.19;;;20.38;56.61
21520;BME280;10921;53.614;9.882;2022-10-24T14:31:54;100378.75;;;20.32;57.03
21520;BME280;10921;53.614;9.882;2022-10-24T14:34:22;100385.00;;;20.32;56.39
21520;BME280;10921;53.614;9.882;2022-10-24T14:36:48;100395.66;;;20.41;56.57
21520;BME280;10921;53.614;9.882;2022-10-24T14:39:17;100392.31;;;20.39;56.84
21520;BME280;10921;53.614;9.882;2022-10-24T14:41:50;100385.00;;;20.46;56.65
21520;BME280;10921;53.614;9.882;2022-10-24T14:44:19;100388.28;;;20.54;55.94
21520;BME280;10921;53.614;9.882;2022-10-24T14:47:04;100383.94;;;20.78;56.14
21520;BME280;10921;53.614;9.882;2022-10-24T14:49:35;100380.47;;;20.71;55.25
21520;BME280;10921;53.614;9.882;2022-10-24T14:54:36;100379.59;;;20.77;55.25
21520;BME280;10921;53.614;9.882;2022-10-24T14:57:04;100392.44;;;20.88;55.39
21520;BME280;10921;53.614;9.882;2022-10-24T14:59:37;100401.84;;;20.86;55.17
21520;BME280;10921;53.614;9.882;2022-10-24T15:02:25;100383.34;;;20.76;55.04
21520;BME280;10921;53.614;9.882;2022-10-24T15:05:27;100390.19;;;20.79;55.37